createdAt,value
2023-01-25T00:00:22.104Z,13.8
2023-01-25T00:01:30.671Z,15.4
2023-01-25T00:02:39.126Z,15.4
2023-01-25T00:03:47.394Z,15.4
2023-01-25T00:04:55.964Z,16.1
2023-01-25T00:06:04.317Z,16.1
2023-01-25T00:07:12.690Z,16.1
2023-01-25T00:08:21.249Z,17.700001
2023-01-25T00:09:29.638Z,17.700001
2023-01-25T00:10:38.011Z,17.700001
2023-01-25T00:11:46.579Z,20.299999
2023-01-25T00:12:54.935Z,20.299999
2023-01-25T00:14:03.319Z,20.299999
2023-01-25T00:15:11.898Z,16.299999
2023-01-25T00:16:20.284Z,16.299999
2023-01-25T00:17:28.618Z,16.299999
2023-01-25T00:18:37.200Z,14.2
2023-01-25T00:19:45.562Z,14.2
2023-01-25T00:20:53.927Z,14.2
2023-01-25T00:22:02.514Z,24.5
2023-01-25T00:23:10.881Z,24.5
2023-01-25T00:24:19.243Z,24.5
2023-01-25T00:25:27.791Z,18.6
2023-01-25T00:26:36.152Z,18.6
2023-01-25T00:27:44.511Z,18.6
2023-01-25T00:28:53.098Z,14.7
2023-01-25T00:30:01.456Z,14.7
2023-01-25T00:31:09.810Z,14.7
2023-01-25T00:32:18.451Z,16.700001
2023-01-25T00:33:26.730Z,16.700001
2023-01-25T00:34:35.113Z,16.700001
2023-01-25T00:35:43.689Z,14.3
2023-01-25T00:36:52.053Z,14.3
2023-01-25T00:38:00.419Z,14.3
2023-01-25T00:39:09.037Z,15
2023-01-25T00:40:17.363Z,15
2023-01-25T00:41:25.748Z,15
2023-01-25T00:42:34.335Z,14.3
2023-01-25T00:43:42.693Z,14.3
2023-01-25T00:44:51.075Z,14.3
2023-01-25T00:45:59.665Z,17
2023-01-25T00:47:08.014Z,17
2023-01-25T00:48:16.379Z,17
2023-01-25T00:49:24.985Z,15
2023-01-25T00:50:33.332Z,15
2023-01-25T00:51:41.687Z,15
2023-01-25T00:52:50.259Z,17.799999
2023-01-25T00:53:58.629Z,17.799999
2023-01-25T00:55:07.308Z,17.799999
2023-01-25T00:56:15.555Z,17.5
2023-01-25T00:57:23.924Z,17.5
2023-01-25T00:58:32.282Z,17.5
2023-01-25T00:59:40.850Z,13.3
2023-01-25T01:00:49.221Z,13.3
2023-01-25T01:01:57.595Z,13.3
2023-01-25T01:03:06.161Z,14.8
2023-01-25T01:04:14.589Z,14.8
2023-01-25T01:05:22.890Z,14.8
2023-01-25T01:06:31.449Z,14.7
2023-01-25T01:07:39.807Z,14.7
2023-01-25T01:08:48.185Z,14.7
2023-01-25T01:09:56.745Z,15.7
2023-01-25T01:11:05.133Z,15.7
2023-01-25T01:12:13.471Z,15.7
2023-01-25T01:13:22.050Z,14.8
2023-01-25T01:14:30.418Z,14.8
2023-01-25T01:15:38.781Z,14.8
2023-01-25T01:16:47.362Z,14.9
2023-01-25T01:17:55.706Z,14.9
2023-01-25T01:19:04.088Z,14.9
2023-01-25T01:20:12.640Z,15.3
2023-01-25T01:21:21.013Z,15.3
2023-01-25T01:22:29.362Z,15.3
2023-01-25T01:23:37.947Z,14.3
2023-01-25T01:24:46.299Z,14.3
2023-01-25T01:25:54.665Z,14.3
2023-01-25T01:27:03.272Z,16.4
2023-01-25T01:28:11.596Z,16.4
2023-01-25T01:29:19.974Z,16.4
2023-01-25T01:30:29.354Z,20.200001
2023-01-25T01:31:37.811Z,20.200001
2023-01-25T01:32:46.299Z,20.200001
2023-01-25T01:33:54.697Z,13.9
2023-01-25T01:35:03.079Z,13.9
2023-01-25T01:36:11.469Z,13.9
2023-01-25T01:37:20.007Z,12.8
2023-01-25T01:38:28.390Z,12.8
2023-01-25T01:39:36.745Z,12.8
2023-01-25T01:40:45.321Z,12.3
2023-01-25T01:41:53.686Z,12.3
2023-01-25T01:43:02.067Z,12.3
2023-01-25T01:44:10.621Z,15.3
2023-01-25T01:45:18.983Z,15.3
2023-01-25T01:46:27.334Z,15.3
2023-01-25T01:47:35.894Z,14.4
2023-01-25T01:48:44.245Z,14.4
2023-01-25T01:49:52.596Z,14.4
2023-01-25T01:51:01.146Z,12.9
2023-01-25T01:52:09.502Z,12.9
2023-01-25T01:53:17.848Z,12.9
2023-01-25T01:54:26.435Z,17.9
2023-01-25T01:55:34.775Z,17.9
2023-01-25T01:56:43.130Z,17.9
2023-01-25T01:57:51.722Z,14.2
2023-01-25T01:59:00.130Z,14.2
2023-01-25T02:00:08.458Z,14.2
2023-01-25T02:01:17.056Z,15.4
2023-01-25T02:02:25.417Z,15.4
2023-01-25T02:03:33.752Z,15.4
2023-01-25T02:04:42.305Z,12.7
2023-01-25T02:05:50.645Z,12.7
2023-01-25T02:06:58.999Z,12.7
2023-01-25T02:08:07.558Z,10.7
2023-01-25T02:09:15.914Z,10.7
2023-01-25T02:10:24.268Z,10.7
2023-01-25T02:11:32.834Z,11.1
2023-01-25T02:12:41.166Z,11.1
2023-01-25T02:13:49.542Z,11.1
2023-01-25T02:14:58.165Z,10.9
2023-01-25T02:16:06.569Z,10.9
2023-01-25T02:17:14.825Z,10.9
2023-01-25T02:18:23.386Z,11
2023-01-25T02:19:31.762Z,11
2023-01-25T02:20:40.140Z,11
2023-01-25T02:21:48.684Z,13.6
2023-01-25T02:22:57.023Z,13.6
2023-01-25T02:24:05.433Z,13.6
2023-01-25T02:25:13.966Z,12.8
2023-01-25T02:26:22.327Z,12.8
2023-01-25T02:27:30.675Z,12.8
2023-01-25T02:28:39.249Z,13.9
2023-01-25T02:29:49.347Z,13.9
2023-01-25T02:30:57.766Z,13.9
2023-01-25T02:32:06.384Z,11.9
2023-01-25T02:33:14.622Z,11.9
2023-01-25T02:34:22.973Z,11.9
2023-01-25T02:35:31.514Z,14.7
2023-01-25T02:36:39.870Z,14.7
2023-01-25T02:37:48.220Z,14.7
2023-01-25T02:38:56.772Z,11.4
2023-01-25T02:40:05.125Z,11.4
2023-01-25T02:41:13.484Z,11.4
2023-01-25T02:42:22.037Z,13.4
2023-01-25T02:43:30.398Z,13.4
2023-01-25T02:44:38.754Z,13.4
2023-01-25T02:45:47.398Z,17.1
2023-01-25T02:46:55.663Z,17.1
2023-01-25T02:48:03.986Z,17.1
2023-01-25T02:49:12.540Z,16.1
2023-01-25T02:50:20.887Z,16.1
2023-01-25T02:51:29.225Z,16.1
2023-01-25T02:52:37.777Z,16.1
2023-01-25T02:53:46.139Z,16.1
2023-01-25T02:54:54.495Z,16.1
2023-01-25T02:56:03.051Z,13
2023-01-25T02:57:11.389Z,13
2023-01-25T02:58:19.743Z,13
2023-01-25T02:59:28.321Z,14.8
2023-01-25T03:00:36.656Z,14.8
2023-01-25T03:01:45.102Z,14.8
2023-01-25T03:02:53.662Z,13
2023-01-25T03:04:01.933Z,13
2023-01-25T03:05:10.489Z,13
2023-01-25T03:06:18.830Z,17.1
2023-01-25T03:07:27.184Z,17.1
2023-01-25T03:08:35.529Z,17.1
2023-01-25T03:09:44.088Z,12.4
2023-01-25T03:10:52.420Z,12.4
2023-01-25T03:12:00.791Z,12.4
2023-01-25T03:13:09.328Z,14.1
2023-01-25T03:14:17.698Z,14.1
2023-01-25T03:15:26.041Z,14.1
2023-01-25T03:16:34.665Z,11.1
2023-01-25T03:17:42.934Z,11.1
2023-01-25T03:18:51.322Z,11.1
2023-01-25T03:19:59.853Z,12.8
2023-01-25T03:21:08.214Z,12.8
2023-01-25T03:22:16.556Z,12.8
2023-01-25T03:23:25.100Z,11.7
2023-01-25T03:24:33.460Z,11.7
2023-01-25T03:25:41.818Z,11.7
2023-01-25T03:26:50.366Z,13.3
2023-01-25T03:27:58.722Z,13.3
2023-01-25T03:29:07.066Z,13.3
2023-01-25T03:30:15.624Z,15
2023-01-25T03:31:24.145Z,15
2023-01-25T03:32:32.400Z,15
2023-01-25T03:33:40.916Z,13.7
2023-01-25T03:34:49.294Z,13.7
2023-01-25T03:35:57.642Z,13.7
2023-01-25T03:37:06.184Z,14.7
2023-01-25T03:38:14.523Z,14.7
2023-01-25T03:39:22.879Z,14.7
2023-01-25T03:40:31.457Z,12.1
2023-01-25T03:41:39.792Z,12.1
2023-01-25T03:42:48.154Z,12.1
2023-01-25T03:43:56.739Z,14.1
2023-01-25T03:45:05.085Z,14.1
2023-01-25T03:46:13.433Z,14.1
2023-01-25T03:47:21.997Z,13.6
2023-01-25T03:48:30.348Z,13.6
2023-01-25T03:49:38.717Z,13.6
2023-01-25T03:50:47.302Z,13.2
2023-01-25T03:51:55.639Z,13.2
2023-01-25T03:53:04.010Z,13.2
2023-01-25T03:54:12.578Z,12
2023-01-25T03:55:20.927Z,12
2023-01-25T03:56:29.297Z,12
2023-01-25T03:57:37.862Z,13.6
2023-01-25T03:58:46.242Z,13.6
2023-01-25T03:59:54.593Z,13.6
2023-01-25T04:01:03.224Z,13.3
2023-01-25T04:02:11.544Z,13.3
2023-01-25T04:03:19.875Z,13.3
2023-01-25T04:04:28.468Z,14
2023-01-25T04:05:36.836Z,14
2023-01-25T04:06:45.239Z,14
2023-01-25T04:07:53.770Z,12.5
2023-01-25T04:09:02.137Z,12.5
2023-01-25T04:10:10.482Z,12.5
2023-01-25T04:11:19.081Z,13.8
2023-01-25T04:12:27.422Z,13.8
2023-01-25T04:13:35.770Z,13.8
2023-01-25T04:14:45.104Z,13.7
2023-01-25T04:15:52.710Z,13.7
2023-01-25T04:17:01.085Z,13.7
2023-01-25T04:18:09.649Z,11.6
2023-01-25T04:19:18.066Z,11.6
2023-01-25T04:20:26.396Z,11.6
2023-01-25T04:21:34.967Z,11.3
2023-01-25T04:22:43.357Z,11.3
2023-01-25T04:23:51.710Z,11.3
2023-01-25T04:25:00.256Z,10.6
2023-01-25T04:26:08.611Z,10.6
2023-01-25T04:27:16.960Z,10.6
2023-01-25T04:28:25.547Z,11
2023-01-25T04:29:40.862Z,11
2023-01-25T04:30:42.258Z,11
2023-01-25T04:31:50.928Z,12.2
2023-01-25T04:32:59.194Z,12.2
2023-01-25T04:34:07.573Z,12.2
2023-01-25T04:35:16.149Z,12.1
2023-01-25T04:36:24.472Z,12.1
2023-01-25T04:37:32.895Z,12.1
2023-01-25T04:38:41.643Z,12.5
2023-01-25T04:39:50.076Z,12.5
2023-01-25T04:41:16.087Z,12.5
2023-01-25T04:42:27.092Z,13
2023-01-25T04:43:35.441Z,13
2023-01-25T04:44:43.802Z,13
2023-01-25T04:45:52.437Z,12.7
2023-01-25T04:47:00.708Z,12.7
2023-01-25T04:48:09.056Z,12.7
2023-01-25T04:49:17.629Z,20
2023-01-25T04:50:25.999Z,20
2023-01-25T04:51:34.342Z,20
2023-01-25T04:52:42.920Z,13
2023-01-25T04:53:51.302Z,13
2023-01-25T04:54:59.621Z,13
2023-01-25T04:56:08.194Z,16.799999
2023-01-25T04:57:16.536Z,16.799999
2023-01-25T04:58:24.885Z,16.799999
2023-01-25T04:59:33.448Z,14.4
2023-01-25T05:00:41.784Z,14.4
2023-01-25T05:01:50.129Z,14.4
2023-01-25T05:02:58.686Z,12.1
2023-01-25T05:04:07.030Z,12.1
2023-01-25T05:05:15.366Z,12.1
2023-01-25T05:06:23.916Z,13.6
2023-01-25T05:07:32.268Z,13.6
2023-01-25T05:08:40.622Z,13.6
2023-01-25T05:09:49.191Z,12.2
2023-01-25T05:10:57.511Z,12.2
2023-01-25T05:12:05.848Z,12.2
2023-01-25T05:13:14.403Z,12.4
2023-01-25T05:14:22.769Z,12.4
2023-01-25T05:15:31.095Z,12.4
2023-01-25T05:16:39.680Z,11.6
2023-01-25T05:17:48.012Z,11.6
2023-01-25T05:18:56.365Z,11.6
2023-01-25T05:20:04.925Z,12.4
2023-01-25T05:21:13.266Z,12.4
2023-01-25T05:22:21.621Z,12.4
2023-01-25T05:23:30.174Z,14.6
2023-01-25T05:24:38.531Z,14.6
2023-01-25T05:25:47.003Z,14.6
2023-01-25T05:26:55.516Z,13.4
2023-01-25T05:28:03.860Z,13.4
2023-01-25T05:29:12.256Z,13.4
2023-01-25T05:30:20.805Z,15.3
2023-01-25T05:31:29.207Z,15.3
2023-01-25T05:32:44.345Z,15.3
2023-01-25T05:33:52.909Z,12.7
2023-01-25T05:35:01.250Z,12.7
2023-01-25T05:36:09.617Z,12.7
2023-01-25T05:37:18.163Z,12.9
2023-01-25T05:38:26.505Z,12.9
2023-01-25T05:39:34.866Z,12.9
2023-01-25T05:40:43.426Z,12.8
2023-01-25T05:41:51.782Z,12.8
2023-01-25T05:43:00.179Z,12.8
2023-01-25T05:44:08.658Z,12.2
2023-01-25T05:45:17.011Z,12.2
2023-01-25T05:46:25.383Z,12.2
2023-01-25T05:47:33.906Z,11.5
2023-01-25T05:48:42.237Z,11.5
2023-01-25T05:49:50.583Z,11.5
2023-01-25T05:50:59.146Z,12.7
2023-01-25T05:52:07.470Z,12.7
2023-01-25T05:53:15.804Z,12.7
2023-01-25T05:54:24.380Z,15.3
2023-01-25T05:55:32.722Z,15.3
2023-01-25T05:56:41.079Z,15.3
2023-01-25T05:57:49.663Z,15.1
2023-01-25T05:58:58.005Z,15.1
2023-01-25T06:00:06.320Z,15.1
2023-01-25T06:01:14.866Z,15.3
2023-01-25T06:02:23.313Z,15.3
2023-01-25T06:03:31.631Z,15.3
2023-01-25T06:04:40.112Z,15.7
2023-01-25T06:05:48.449Z,15.7
2023-01-25T06:06:56.806Z,15.7
2023-01-25T06:08:05.364Z,17
2023-01-25T06:09:13.726Z,17
2023-01-25T06:10:22.059Z,17
2023-01-25T06:11:30.610Z,12.6
2023-01-25T06:12:38.968Z,12.6
2023-01-25T06:13:47.359Z,12.6
2023-01-25T06:14:55.881Z,15.5
2023-01-25T06:16:04.232Z,15.5
2023-01-25T06:17:12.597Z,15.5
2023-01-25T06:18:21.157Z,12.9
2023-01-25T06:19:29.517Z,12.9
2023-01-25T06:20:37.852Z,12.9
2023-01-25T06:21:46.451Z,13.5
2023-01-25T06:22:54.813Z,13.5
2023-01-25T06:24:03.217Z,13.5
2023-01-25T06:25:12.241Z,12.5
2023-01-25T06:26:20.168Z,12.5
2023-01-25T06:27:28.525Z,12.5
2023-01-25T06:28:37.093Z,14.5
2023-01-25T06:29:45.503Z,14.5
2023-01-25T06:30:53.844Z,14.5
2023-01-25T06:32:02.386Z,14.2
2023-01-25T06:33:10.691Z,14.2
2023-01-25T06:34:19.039Z,14.2
2023-01-25T06:35:27.616Z,19.4
2023-01-25T06:36:35.948Z,19.4
2023-01-25T06:37:44.302Z,19.4
2023-01-25T06:38:52.952Z,12.2
2023-01-25T06:40:01.295Z,12.2
2023-01-25T06:41:11.077Z,12.2
2023-01-25T06:42:18.242Z,13.1
2023-01-25T06:43:26.613Z,13.1
2023-01-25T06:44:35.061Z,13.1
2023-01-25T06:45:43.637Z,13.8
2023-01-25T06:46:52.093Z,13.8
2023-01-25T06:48:00.391Z,13.8
2023-01-25T06:49:08.909Z,14.5
2023-01-25T06:50:17.322Z,14.5
2023-01-25T06:51:25.638Z,14.5
2023-01-25T06:52:34.212Z,12.3
2023-01-25T06:53:42.581Z,12.3
2023-01-25T06:54:50.934Z,12.3
2023-01-25T06:55:59.497Z,13.7
2023-01-25T06:57:07.829Z,13.7
2023-01-25T06:58:16.183Z,13.7
2023-01-25T06:59:24.754Z,14.4
2023-01-25T07:00:33.121Z,14.4
2023-01-25T07:01:41.546Z,14.4
2023-01-25T07:02:50.138Z,14
2023-01-25T07:03:58.386Z,14
2023-01-25T07:05:07.136Z,14
2023-01-25T07:06:15.281Z,15
2023-01-25T07:07:23.648Z,15
2023-01-25T07:08:31.979Z,15
2023-01-25T07:09:40.551Z,16.700001
2023-01-25T07:10:48.915Z,16.700001
2023-01-25T07:11:57.257Z,16.700001
2023-01-25T07:13:05.828Z,17.1
2023-01-25T07:14:14.175Z,17.1
2023-01-25T07:15:22.548Z,17.1
2023-01-25T07:16:31.111Z,14.8
2023-01-25T07:17:39.520Z,14.8
2023-01-25T07:18:47.911Z,14.8
2023-01-25T07:19:56.458Z,14.6
2023-01-25T07:21:04.860Z,14.6
2023-01-25T07:22:13.231Z,14.6
2023-01-25T07:23:21.792Z,12.8
2023-01-25T07:24:30.168Z,12.8
2023-01-25T07:25:38.513Z,12.8
2023-01-25T07:26:47.101Z,13.6
2023-01-25T07:27:55.459Z,13.6
2023-01-25T07:29:03.816Z,13.6
2023-01-25T07:30:12.419Z,14.7
2023-01-25T07:31:20.929Z,14.7
2023-01-25T07:32:29.110Z,14.7
2023-01-25T07:33:37.671Z,13.9
2023-01-25T07:34:46.067Z,13.9
2023-01-25T07:35:54.400Z,13.9
2023-01-25T07:37:02.990Z,14.7
2023-01-25T07:38:12.907Z,14.7
2023-01-25T07:39:19.735Z,14.7
2023-01-25T07:40:28.328Z,14.4
2023-01-25T07:41:36.671Z,14.4
2023-01-25T07:42:45.054Z,14.4
2023-01-25T07:43:53.657Z,15.8
2023-01-25T07:45:01.995Z,15.8
2023-01-25T07:46:10.386Z,15.8
2023-01-25T07:47:18.931Z,17.4
2023-01-25T07:48:27.302Z,17.4
2023-01-25T07:49:35.771Z,17.4
2023-01-25T07:50:44.308Z,14.4
2023-01-25T07:51:52.662Z,14.4
2023-01-25T07:53:01.056Z,14.4
2023-01-25T07:54:09.609Z,26
2023-01-25T07:55:17.955Z,26
2023-01-25T07:56:26.312Z,26
2023-01-25T07:57:34.913Z,18.200001
2023-01-25T07:58:43.327Z,18.200001
2023-01-25T07:59:51.678Z,18.200001
2023-01-25T08:01:00.268Z,16.6
2023-01-25T08:02:08.614Z,16.6
2023-01-25T08:03:16.994Z,16.6
2023-01-25T08:04:25.599Z,16.1
2023-01-25T08:05:33.989Z,16.1
2023-01-25T08:06:42.346Z,16.1
2023-01-25T08:07:50.933Z,15.7
2023-01-25T08:08:59.325Z,15.7
2023-01-25T08:10:07.661Z,15.7
2023-01-25T08:11:16.227Z,18.200001
2023-01-25T08:12:24.580Z,18.200001
2023-01-25T08:13:32.911Z,18.200001
2023-01-25T08:14:41.500Z,19.700001
2023-01-25T08:15:49.855Z,19.700001
2023-01-25T08:16:58.201Z,19.700001
2023-01-25T08:18:06.759Z,21
2023-01-25T08:19:15.121Z,21
2023-01-25T08:20:23.503Z,21
2023-01-25T08:21:32.107Z,19.4
2023-01-25T08:22:40.447Z,19.4
2023-01-25T08:23:48.850Z,19.4
2023-01-25T08:24:57.358Z,19.1
2023-01-25T08:26:05.720Z,19.1
2023-01-25T08:27:14.176Z,19.1
2023-01-25T08:28:22.771Z,19.6
2023-01-25T08:29:31.142Z,19.6
2023-01-25T08:30:48.662Z,19.6
2023-01-25T08:31:48.071Z,20
2023-01-25T08:32:56.364Z,20
2023-01-25T08:34:04.732Z,20
2023-01-25T08:35:13.291Z,20.299999
2023-01-25T08:36:21.698Z,20.299999
2023-01-25T08:37:30.081Z,20.299999
2023-01-25T08:38:38.619Z,20.4
2023-01-25T08:39:46.986Z,20.4
2023-01-25T08:40:55.341Z,20.4
2023-01-25T08:42:03.911Z,20.799999
2023-01-25T08:43:12.912Z,20.799999
2023-01-25T08:44:21.268Z,20.799999
2023-01-25T08:45:29.840Z,33
2023-01-25T08:46:38.183Z,33
2023-01-25T08:47:46.541Z,33
2023-01-25T08:48:55.115Z,39
2023-01-25T08:50:03.562Z,39
2023-01-25T08:51:11.961Z,39
2023-01-25T08:52:21.885Z,20.200001
2023-01-25T08:53:28.884Z,20.200001
2023-01-25T08:54:37.223Z,20.200001
2023-01-25T08:55:45.798Z,20.1
2023-01-25T08:56:54.204Z,20.1
2023-01-25T08:58:02.518Z,20.1
2023-01-25T08:59:11.087Z,20.200001
2023-01-25T09:00:19.471Z,20.200001
2023-01-25T09:01:27.798Z,20.200001
2023-01-25T09:02:36.613Z,20.200001
2023-01-25T09:03:44.839Z,20.200001
2023-01-25T09:04:53.075Z,20.200001
2023-01-25T09:06:01.630Z,21.1
2023-01-25T09:07:10.000Z,21.1
2023-01-25T09:08:18.387Z,21.1
2023-01-25T09:09:26.995Z,21.4
2023-01-25T09:10:35.330Z,21.4
2023-01-25T09:11:43.752Z,21.4
2023-01-25T09:12:52.338Z,20.299999
2023-01-25T09:14:00.722Z,20.299999
2023-01-25T09:15:09.332Z,20.299999
2023-01-25T09:16:17.658Z,19.799999
2023-01-25T09:17:26.044Z,19.799999
2023-01-25T09:18:34.587Z,19.799999
2023-01-25T09:19:43.167Z,19.799999
2023-01-25T09:20:51.503Z,19.799999
2023-01-25T09:21:59.862Z,19.799999
2023-01-25T09:23:08.422Z,20.299999
2023-01-25T09:24:16.841Z,20.299999
2023-01-25T09:25:25.135Z,20.299999
2023-01-25T09:26:33.695Z,19.299999
2023-01-25T09:27:42.043Z,19.299999
2023-01-25T09:28:50.398Z,19.299999
2023-01-25T09:30:01.639Z,19.200001
2023-01-25T09:31:20.807Z,19.200001
2023-01-25T09:32:15.708Z,19.200001
2023-01-25T09:33:24.214Z,18.4
2023-01-25T09:34:32.592Z,18.4
2023-01-25T09:35:41.175Z,18.4
2023-01-25T09:36:49.768Z,18.299999
2023-01-25T09:37:58.106Z,18.299999
2023-01-25T09:39:06.471Z,18.299999
2023-01-25T09:40:15.027Z,21.1
2023-01-25T09:41:23.391Z,21.1
2023-01-25T09:42:31.721Z,21.1
2023-01-25T09:43:40.259Z,19.200001
2023-01-25T09:44:48.838Z,19.200001
2023-01-25T09:45:57.203Z,19.200001
2023-01-25T09:47:05.747Z,18.799999
2023-01-25T09:48:14.095Z,18.799999
2023-01-25T09:49:22.448Z,18.799999
2023-01-25T09:50:30.998Z,18.299999
2023-01-25T09:51:39.349Z,18.299999
2023-01-25T09:52:47.697Z,18.299999
2023-01-25T09:53:56.283Z,17
2023-01-25T09:55:04.633Z,17
2023-01-25T09:56:12.987Z,17
2023-01-25T09:57:21.553Z,17.200001
2023-01-25T09:58:29.868Z,17.200001
2023-01-25T09:59:38.215Z,17.200001
2023-01-25T10:00:46.779Z,17.5
2023-01-25T10:01:55.149Z,17.5
2023-01-25T10:03:03.637Z,17.5
2023-01-25T10:04:12.019Z,16.1
2023-01-25T10:05:20.361Z,16.1
2023-01-25T10:06:30.346Z,16.1
2023-01-25T10:07:37.275Z,15.2
2023-01-25T10:08:45.632Z,15.2
2023-01-25T10:09:53.974Z,15.2
2023-01-25T10:11:02.537Z,15.3
2023-01-25T10:12:10.878Z,15.3
2023-01-25T10:13:19.245Z,15.3
2023-01-25T10:14:27.774Z,15.9
2023-01-25T10:15:36.117Z,15.9
2023-01-25T10:16:44.540Z,15.9
2023-01-25T10:17:53.034Z,16.200001
2023-01-25T10:19:01.368Z,16.200001
2023-01-25T10:20:10.214Z,16.200001
2023-01-25T10:21:18.321Z,15.7
2023-01-25T10:22:28.223Z,15.7
2023-01-25T10:23:35.016Z,15.7
2023-01-25T10:24:43.580Z,14.1
2023-01-25T10:25:51.920Z,14.1
2023-01-25T10:27:00.261Z,14.1
2023-01-25T10:28:08.801Z,18.700001
2023-01-25T10:29:17.161Z,18.700001
2023-01-25T10:30:25.501Z,18.700001
2023-01-25T10:31:34.158Z,17.200001
2023-01-25T10:32:54.834Z,17.200001
2023-01-25T10:33:50.753Z,17.200001
2023-01-25T10:34:59.304Z,14.3
2023-01-25T10:36:07.652Z,14.3
2023-01-25T10:37:15.995Z,14.3
2023-01-25T10:38:24.563Z,12.5
2023-01-25T10:39:32.918Z,12.5
2023-01-25T10:40:41.274Z,12.5
2023-01-25T10:41:50.388Z,12.5
2023-01-25T10:42:58.749Z,12.5
2023-01-25T10:44:07.102Z,12.5
2023-01-25T10:45:15.683Z,12.7
2023-01-25T10:46:24.048Z,12.7
2023-01-25T10:47:32.340Z,12.7
2023-01-25T10:48:40.880Z,13.4
2023-01-25T10:49:49.256Z,13.4
2023-01-25T10:50:57.889Z,13.4
2023-01-25T10:52:06.350Z,15.3
2023-01-25T10:53:14.688Z,15.3
2023-01-25T10:54:23.044Z,15.3
2023-01-25T10:55:31.594Z,15.2
2023-01-25T10:56:40.012Z,15.2
2023-01-25T10:57:48.348Z,15.2
2023-01-25T10:58:56.904Z,14.8
2023-01-25T11:00:05.255Z,14.8
2023-01-25T11:01:13.636Z,14.8
2023-01-25T11:02:22.181Z,16.5
2023-01-25T11:03:31.079Z,16.5
2023-01-25T11:04:39.430Z,16.5
2023-01-25T11:05:47.985Z,18
2023-01-25T11:06:56.353Z,18
2023-01-25T11:08:04.708Z,18
2023-01-25T11:09:13.269Z,16.799999
2023-01-25T11:10:21.620Z,16.799999
2023-01-25T11:11:29.980Z,16.799999
2023-01-25T11:12:38.540Z,13.5
2023-01-25T11:13:46.883Z,13.5
2023-01-25T11:14:55.229Z,13.5
2023-01-25T11:16:03.793Z,16.6
2023-01-25T11:17:12.157Z,16.6
2023-01-25T11:18:20.518Z,16.6
2023-01-25T11:19:29.208Z,15.6
2023-01-25T11:20:37.549Z,15.6
2023-01-25T11:21:45.892Z,15.6
2023-01-25T11:22:54.490Z,12.7
2023-01-25T11:24:05.384Z,12.7
2023-01-25T11:25:13.678Z,12.7
2023-01-25T11:26:22.244Z,11.8
2023-01-25T11:27:30.560Z,11.8
2023-01-25T11:28:38.926Z,11.8
2023-01-25T11:29:47.531Z,12.8
2023-01-25T11:30:55.995Z,12.8
2023-01-25T11:32:04.235Z,12.8
2023-01-25T11:33:12.844Z,13.9
2023-01-25T11:34:21.158Z,13.9
2023-01-25T11:35:29.515Z,13.9
2023-01-25T11:36:38.202Z,13.5
2023-01-25T11:37:46.534Z,13.5
2023-01-25T11:38:54.876Z,13.5
2023-01-25T11:40:03.450Z,13.9
2023-01-25T11:41:11.782Z,13.9
2023-01-25T11:42:20.139Z,13.9
2023-01-25T11:43:28.691Z,13.3
2023-01-25T11:44:37.088Z,13.3
2023-01-25T11:45:45.428Z,13.3
2023-01-25T11:46:54.016Z,12.8
2023-01-25T11:48:02.360Z,12.8
2023-01-25T11:49:10.749Z,12.8
2023-01-25T11:50:19.271Z,13.5
2023-01-25T11:51:27.631Z,13.5
2023-01-25T11:52:35.963Z,13.5
2023-01-25T11:53:44.508Z,15.5
2023-01-25T11:54:52.875Z,15.5
2023-01-25T11:56:08.328Z,15.5
2023-01-25T11:57:16.865Z,14.2
2023-01-25T11:58:25.216Z,14.2
2023-01-25T11:59:33.613Z,14.2
2023-01-25T12:00:42.145Z,12.3
2023-01-25T12:01:50.492Z,12.3
2023-01-25T12:02:58.910Z,12.3
2023-01-25T12:04:07.619Z,11.6
2023-01-25T12:05:21.426Z,11.6
2023-01-25T12:06:24.142Z,11.6
2023-01-25T12:07:32.683Z,12.7
2023-01-25T12:08:41.009Z,12.7
2023-01-25T12:09:49.370Z,12.7
2023-01-25T12:10:57.995Z,14.6
2023-01-25T12:12:06.373Z,14.6
2023-01-25T12:13:14.735Z,14.6
2023-01-25T12:14:23.287Z,12.8
2023-01-25T12:15:31.637Z,12.8
2023-01-25T12:16:39.993Z,12.8
2023-01-25T12:17:48.542Z,12.5
2023-01-25T12:18:56.901Z,12.5
2023-01-25T12:20:05.239Z,12.5
2023-01-25T12:21:20.046Z,33.5
2023-01-25T12:22:22.154Z,33.5
2023-01-25T12:23:30.491Z,33.5
2023-01-25T12:24:39.056Z,24.6
2023-01-25T12:25:47.408Z,24.6
2023-01-25T12:26:55.771Z,24.6
2023-01-25T12:28:04.328Z,40.5
2023-01-25T12:29:12.754Z,40.5
2023-01-25T12:30:21.103Z,40.5
2023-01-25T12:31:29.661Z,13.5
2023-01-25T12:32:37.989Z,13.5
2023-01-25T12:33:46.595Z,13.5
2023-01-25T12:34:56.064Z,12.1
2023-01-25T12:36:04.417Z,12.1
2023-01-25T12:37:12.865Z,12.1
2023-01-25T12:38:21.341Z,11.3
2023-01-25T12:39:29.682Z,11.3
2023-01-25T12:40:38.056Z,11.3
2023-01-25T12:41:46.636Z,12.9
2023-01-25T12:42:54.968Z,12.9
2023-01-25T12:44:03.318Z,12.9
2023-01-25T12:45:12.077Z,11.3
2023-01-25T12:46:20.256Z,11.3
2023-01-25T12:47:28.581Z,11.3
2023-01-25T12:48:37.134Z,12.4
2023-01-25T12:49:45.517Z,12.4
2023-01-25T12:50:53.835Z,12.4
2023-01-25T12:52:02.394Z,11.6
2023-01-25T12:53:10.782Z,11.6
2023-01-25T12:54:19.097Z,11.6
2023-01-25T12:55:27.651Z,17.700001
2023-01-25T12:56:36.012Z,17.700001
2023-01-25T12:57:44.367Z,17.700001
2023-01-25T12:58:52.903Z,16.5
2023-01-25T13:00:01.258Z,16.5
2023-01-25T13:01:09.607Z,16.5
2023-01-25T13:02:18.186Z,13.8
2023-01-25T13:03:26.488Z,13.8
2023-01-25T13:04:34.843Z,13.8
2023-01-25T13:05:43.397Z,10.9
2023-01-25T13:06:51.742Z,10.9
2023-01-25T13:08:00.098Z,10.9
2023-01-25T13:09:08.686Z,12.8
2023-01-25T13:10:17.012Z,12.8
2023-01-25T13:11:25.373Z,12.8
2023-01-25T13:12:33.931Z,17.200001
2023-01-25T13:13:42.265Z,17.200001
2023-01-25T13:14:50.608Z,17.200001
2023-01-25T13:15:59.176Z,11.9
2023-01-25T13:17:10.213Z,11.9
2023-01-25T13:18:15.874Z,11.9
2023-01-25T13:19:24.432Z,10.8
2023-01-25T13:20:32.785Z,10.8
2023-01-25T13:21:41.165Z,10.8
2023-01-25T13:22:49.736Z,14.7
2023-01-25T13:23:58.132Z,14.7
2023-01-25T13:25:06.481Z,14.7
2023-01-25T13:26:14.995Z,14.7
2023-01-25T13:27:23.341Z,14.7
2023-01-25T13:28:31.717Z,14.7
2023-01-25T13:29:40.337Z,11.2
2023-01-25T13:30:48.655Z,11.2
2023-01-25T13:31:58.885Z,11.2
2023-01-25T13:33:05.590Z,14
2023-01-25T13:34:13.933Z,14
2023-01-25T13:35:22.277Z,14
2023-01-25T13:36:30.834Z,10.7
2023-01-25T13:37:39.187Z,10.7
2023-01-25T13:38:47.533Z,10.7
2023-01-25T13:39:56.085Z,9.7
2023-01-25T13:41:04.691Z,9.7
2023-01-25T13:42:13.188Z,9.7
2023-01-25T13:43:21.759Z,11
2023-01-25T13:44:30.154Z,11
2023-01-25T13:45:38.539Z,11
2023-01-25T13:46:47.070Z,11.2
2023-01-25T13:47:55.476Z,11.2
2023-01-25T13:49:03.834Z,11.2
2023-01-25T13:50:12.828Z,11.6
2023-01-25T13:51:20.765Z,11.6
2023-01-25T13:52:29.124Z,11.6
2023-01-25T13:53:37.897Z,11.5
2023-01-25T13:54:46.279Z,11.5
2023-01-25T13:55:54.641Z,11.5
2023-01-25T13:57:03.230Z,12.8
2023-01-25T13:58:11.536Z,12.8
2023-01-25T13:59:19.890Z,12.8
2023-01-25T14:00:28.481Z,11.8
2023-01-25T14:01:36.878Z,11.8
2023-01-25T14:02:46.327Z,11.8
2023-01-25T14:03:53.787Z,14.6
2023-01-25T14:05:02.310Z,14.6
2023-01-25T14:06:10.622Z,14.6
2023-01-25T14:07:19.173Z,15.2
2023-01-25T14:08:27.567Z,15.2
2023-01-25T14:09:35.953Z,15.2
2023-01-25T14:10:44.520Z,11.2
2023-01-25T14:11:52.890Z,11.2
2023-01-25T14:13:01.291Z,11.2
2023-01-25T14:14:09.791Z,12.1
2023-01-25T14:15:18.165Z,12.1
2023-01-25T14:16:26.563Z,12.1
2023-01-25T14:17:35.105Z,12.7
2023-01-25T14:18:43.470Z,12.7
2023-01-25T14:19:51.835Z,12.7
2023-01-25T14:21:00.816Z,14.5
2023-01-25T14:22:09.154Z,14.5
2023-01-25T14:23:17.511Z,14.5
2023-01-25T14:24:26.136Z,11.2
2023-01-25T14:25:34.465Z,11.2
2023-01-25T14:26:42.830Z,11.2
2023-01-25T14:27:51.373Z,12.8
2023-01-25T14:29:01.513Z,12.8
2023-01-25T14:30:08.402Z,12.8
2023-01-25T15:03:29.343Z,0
2023-01-25T15:04:37.691Z,0
2023-01-25T15:05:46.074Z,0
2023-01-25T15:06:55.251Z,10.4
2023-01-25T15:08:02.991Z,10.4
2023-01-25T15:09:11.378Z,10.4
2023-01-25T15:10:19.934Z,11.4
2023-01-25T15:11:28.289Z,11.4
2023-01-25T15:12:36.649Z,11.4
2023-01-25T15:13:45.316Z,13.3
2023-01-25T15:14:53.705Z,13.3
2023-01-25T15:16:02.062Z,13.3
2023-01-25T15:17:10.619Z,12.7
2023-01-25T15:18:18.956Z,12.7
2023-01-25T15:19:27.340Z,12.7
2023-01-25T15:20:35.889Z,13.8
2023-01-25T15:21:44.273Z,13.8
2023-01-25T15:22:52.619Z,13.8
2023-01-25T15:24:01.254Z,13.3
2023-01-25T15:25:12.674Z,13.3
2023-01-25T15:26:17.896Z,13.3
2023-01-25T15:27:26.453Z,13.9
2023-01-25T15:28:34.841Z,13.9
2023-01-25T15:29:43.185Z,13.9
2023-01-25T15:30:51.812Z,12